<?xml version="1.0" encoding="UTF-8" standalone="no" ?>
<gpx xmlns="http://www.topografix.com/GPX/1/1" xmlns:xsi="http://www.w3.org/2001/XMLSchema-instance" xsi:schemaLocation="http://www.topografix.com/GPX/1/1 http://www.topografix.com/GPX/1/1/gpx.xsd" version="1.1" creator="VisuGPX - https://www.visugpx.com">
  <metadata>
    <name>LaVraieCroix_Boucle_14km</name>
    <desc><![CDATA[gnerando idor:8142396]]></desc>
  </metadata>
  <trk>
    <name><![CDATA[LaVraieCroix_Boucle_13.8km-8142396]]></name>
    <extensions>
      <line xmlns="http://www.topografix.com/GPX/gpx_style/0/2">
        <color>0000FF</color>
        <width>4</width>
      </line>
    </extensions>
    <trkseg>
      <trkpt lat="47.68957" lon="-2.54344">
        <ele>107</ele>
        <time>2023-11-04T13:10:22Z</time>
      </trkpt>
      <trkpt lat="47.68813" lon="-2.54342">
        <ele>107</ele>
        <time>2023-11-04T13:13:34Z</time>
      </trkpt>
      <trkpt lat="47.68735" lon="-2.54402">
        <ele>122</ele>
        <time>2023-11-04T13:15:31Z</time>
      </trkpt>
      <trkpt lat="47.68622" lon="-2.54419">
        <ele>135</ele>
        <time>2023-11-04T13:18:03Z</time>
      </trkpt>
      <trkpt lat="47.6855" lon="-2.54041">
        <ele>135</ele>
        <time>2023-11-04T13:23:56Z</time>
      </trkpt>
      <trkpt lat="47.68503" lon="-2.53634">
        <ele>123</ele>
        <time>2023-11-04T13:30:07Z</time>
      </trkpt>
      <trkpt lat="47.68411" lon="-2.53471">
        <ele>116</ele>
        <time>2023-11-04T13:33:18Z</time>
      </trkpt>
      <trkpt lat="47.68356" lon="-2.53213">
        <ele>102</ele>
        <time>2023-11-04T13:37:21Z</time>
      </trkpt>
      <trkpt lat="47.68405" lon="-2.532">
        <ele>103</ele>
        <time>2023-11-04T13:38:27Z</time>
      </trkpt>
      <trkpt lat="47.68373" lon="-2.53149">
        <ele>99</ele>
        <time>2023-11-04T13:39:30Z</time>
      </trkpt>
      <trkpt lat="47.68293" lon="-2.53235">
        <ele>102</ele>
        <time>2023-11-04T13:41:42Z</time>
      </trkpt>
      <trkpt lat="47.68093" lon="-2.53269">
        <ele>100</ele>
        <time>2023-11-04T13:46:11Z</time>
      </trkpt>
      <trkpt lat="47.68059" lon="-2.53222">
        <ele>96</ele>
        <time>2023-11-04T13:47:13Z</time>
      </trkpt>
      <trkpt lat="47.67877" lon="-2.53213">
        <ele>91</ele>
        <time>2023-11-04T13:51:16Z</time>
      </trkpt>
      <trkpt lat="47.67755" lon="-2.52891">
        <ele>92</ele>
        <time>2023-11-04T13:56:47Z</time>
      </trkpt>
      <trkpt lat="47.67804" lon="-2.5287">
        <ele>92</ele>
        <time>2023-11-04T13:57:56Z</time>
      </trkpt>
      <trkpt lat="47.67772" lon="-2.52707">
        <ele>93</ele>
        <time>2023-11-04T14:00:28Z</time>
      </trkpt>
      <trkpt lat="47.67865" lon="-2.52556">
        <ele>104</ele>
        <time>2023-11-04T14:03:32Z</time>
      </trkpt>
      <trkpt lat="47.68007" lon="-2.52436">
        <ele>109</ele>
        <time>2023-11-04T14:07:10Z</time>
      </trkpt>
      <trkpt lat="47.68116" lon="-2.52372">
        <ele>114</ele>
        <time>2023-11-04T14:09:46Z</time>
      </trkpt>
      <trkpt lat="47.68232" lon="-2.52556">
        <ele>116</ele>
        <time>2023-11-04T14:13:33Z</time>
      </trkpt>
      <trkpt lat="47.68229" lon="-2.52355">
        <ele>118</ele>
        <time>2023-11-04T14:16:34Z</time>
      </trkpt>
      <trkpt lat="47.68324" lon="-2.52303">
        <ele>119</ele>
        <time>2023-11-04T14:18:49Z</time>
      </trkpt>
      <trkpt lat="47.68486" lon="-2.52565">
        <ele>116</ele>
        <time>2023-11-04T14:24:08Z</time>
      </trkpt>
      <trkpt lat="47.6868" lon="-2.52411">
        <ele>111</ele>
        <time>2023-11-04T14:29:02Z</time>
      </trkpt>
      <trkpt lat="47.6898" lon="-2.52187">
        <ele>107</ele>
        <time>2023-11-04T14:36:30Z</time>
      </trkpt>
      <trkpt lat="47.69029" lon="-2.5208">
        <ele>110</ele>
        <time>2023-11-04T14:38:26Z</time>
      </trkpt>
      <trkpt lat="47.69136" lon="-2.52003">
        <ele>114</ele>
        <time>2023-11-04T14:41:05Z</time>
      </trkpt>
      <trkpt lat="47.69099" lon="-2.5181">
        <ele>116</ele>
        <time>2023-11-04T14:44:05Z</time>
      </trkpt>
      <trkpt lat="47.69188" lon="-2.51702">
        <ele>124</ele>
        <time>2023-11-04T14:46:38Z</time>
      </trkpt>
      <trkpt lat="47.69159" lon="-2.51591">
        <ele>124</ele>
        <time>2023-11-04T14:48:25Z</time>
      </trkpt>
      <trkpt lat="47.69275" lon="-2.51548">
        <ele>135</ele>
        <time>2023-11-04T14:51:05Z</time>
      </trkpt>
      <trkpt lat="47.69416" lon="-2.51312">
        <ele>141</ele>
        <time>2023-11-04T14:55:48Z</time>
      </trkpt>
      <trkpt lat="47.69515" lon="-2.51479">
        <ele>140</ele>
        <time>2023-11-04T14:59:08Z</time>
      </trkpt>
      <trkpt lat="47.6963" lon="-2.51591">
        <ele>134</ele>
        <time>2023-11-04T15:02:12Z</time>
      </trkpt>
      <trkpt lat="47.69708" lon="-2.51557">
        <ele>134</ele>
        <time>2023-11-04T15:04:00Z</time>
      </trkpt>
      <trkpt lat="47.69916" lon="-2.51535">
        <ele>136</ele>
        <time>2023-11-04T15:08:38Z</time>
      </trkpt>
      <trkpt lat="47.70014" lon="-2.51805">
        <ele>130</ele>
        <time>2023-11-04T15:13:14Z</time>
      </trkpt>
      <trkpt lat="47.70193" lon="-2.51797">
        <ele>130</ele>
        <time>2023-11-04T15:17:13Z</time>
      </trkpt>
      <trkpt lat="47.70133" lon="-2.51213">
        <ele>130</ele>
        <time>2023-11-04T15:26:03Z</time>
      </trkpt>
      <trkpt lat="47.70202" lon="-2.51093">
        <ele>128</ele>
        <time>2023-11-04T15:28:25Z</time>
      </trkpt>
      <trkpt lat="47.70271" lon="-2.51042">
        <ele>124</ele>
        <time>2023-11-04T15:30:08Z</time>
      </trkpt>
      <trkpt lat="47.70332" lon="-2.5087">
        <ele>107</ele>
        <time>2023-11-04T15:33:03Z</time>
      </trkpt>
      <trkpt lat="47.70476" lon="-2.50848">
        <ele>108</ele>
        <time>2023-11-04T15:36:16Z</time>
      </trkpt>
      <trkpt lat="47.70433" lon="-2.5108">
        <ele>125</ele>
        <time>2023-11-04T15:39:52Z</time>
      </trkpt>
      <trkpt lat="47.70502" lon="-2.51436">
        <ele>131</ele>
        <time>2023-11-04T15:45:25Z</time>
      </trkpt>
      <trkpt lat="47.70586" lon="-2.51771">
        <ele>127</ele>
        <time>2023-11-04T15:50:46Z</time>
      </trkpt>
      <trkpt lat="47.70404" lon="-2.51823">
        <ele>123</ele>
        <time>2023-11-04T15:54:53Z</time>
      </trkpt>
      <trkpt lat="47.70407" lon="-2.51986">
        <ele>122</ele>
        <time>2023-11-04T15:57:19Z</time>
      </trkpt>
      <trkpt lat="47.70551" lon="-2.51973">
        <ele>128</ele>
        <time>2023-11-04T16:00:32Z</time>
      </trkpt>
      <trkpt lat="47.70696" lon="-2.5202">
        <ele>127</ele>
        <time>2023-11-04T16:03:50Z</time>
      </trkpt>
      <trkpt lat="47.70704" lon="-2.52166">
        <ele>132</ele>
        <time>2023-11-04T16:06:01Z</time>
      </trkpt>
      <trkpt lat="47.70745" lon="-2.52325">
        <ele>130</ele>
        <time>2023-11-04T16:08:34Z</time>
      </trkpt>
      <trkpt lat="47.70606" lon="-2.52509">
        <ele>127</ele>
        <time>2023-11-04T16:12:43Z</time>
      </trkpt>
      <trkpt lat="47.70592" lon="-2.52681">
        <ele>124</ele>
        <time>2023-11-04T16:15:18Z</time>
      </trkpt>
      <trkpt lat="47.70499" lon="-2.52934">
        <ele>124</ele>
        <time>2023-11-04T16:19:37Z</time>
      </trkpt>
      <trkpt lat="47.69994" lon="-2.53539">
        <ele>119</ele>
        <time>2023-11-04T16:34:03Z</time>
      </trkpt>
      <trkpt lat="47.6987" lon="-2.53822">
        <ele>118</ele>
        <time>2023-11-04T16:39:06Z</time>
      </trkpt>
      <trkpt lat="47.70043" lon="-2.54187">
        <ele>122</ele>
        <time>2023-11-04T16:45:47Z</time>
      </trkpt>
      <trkpt lat="47.70162" lon="-2.54685">
        <ele>124</ele>
        <time>2023-11-04T16:53:42Z</time>
      </trkpt>
      <trkpt lat="47.70266" lon="-2.54792">
        <ele>132</ele>
        <time>2023-11-04T16:56:31Z</time>
      </trkpt>
      <trkpt lat="47.70266" lon="-2.54852">
        <ele>132</ele>
        <time>2023-11-04T16:57:24Z</time>
      </trkpt>
      <trkpt lat="47.70176" lon="-2.54887">
        <ele>128</ele>
        <time>2023-11-04T16:59:29Z</time>
      </trkpt>
      <trkpt lat="47.7019" lon="-2.54947">
        <ele>127</ele>
        <time>2023-11-04T17:00:26Z</time>
      </trkpt>
      <trkpt lat="47.70107" lon="-2.54955">
        <ele>130</ele>
        <time>2023-11-04T17:02:17Z</time>
      </trkpt>
      <trkpt lat="47.70104" lon="-2.55037">
        <ele>132</ele>
        <time>2023-11-04T17:03:30Z</time>
      </trkpt>
      <trkpt lat="47.70026" lon="-2.55088">
        <ele>141</ele>
        <time>2023-11-04T17:05:24Z</time>
      </trkpt>
      <trkpt lat="47.70075" lon="-2.55355">
        <ele>139</ele>
        <time>2023-11-04T17:09:33Z</time>
      </trkpt>
      <trkpt lat="47.69832" lon="-2.55217">
        <ele>139</ele>
        <time>2023-11-04T17:15:20Z</time>
      </trkpt>
      <trkpt lat="47.69728" lon="-2.55196">
        <ele>136</ele>
        <time>2023-11-04T17:17:40Z</time>
      </trkpt>
      <trkpt lat="47.69541" lon="-2.5505">
        <ele>131</ele>
        <time>2023-11-04T17:22:22Z</time>
      </trkpt>
      <trkpt lat="47.69431" lon="-2.55076">
        <ele>127</ele>
        <time>2023-11-04T17:24:50Z</time>
      </trkpt>
      <trkpt lat="47.69318" lon="-2.54728">
        <ele>120</ele>
        <time>2023-11-04T17:30:37Z</time>
      </trkpt>
      <trkpt lat="47.69344" lon="-2.54513">
        <ele>117</ele>
        <time>2023-11-04T17:33:54Z</time>
      </trkpt>
      <trkpt lat="47.692" lon="-2.54599">
        <ele>117</ele>
        <time>2023-11-04T17:37:21Z</time>
      </trkpt>
      <trkpt lat="47.69075" lon="-2.54625">
        <ele>114</ele>
        <time>2023-11-04T17:40:09Z</time>
      </trkpt>
      <trkpt lat="47.69038" lon="-2.54462">
        <ele>112</ele>
        <time>2023-11-04T17:42:44Z</time>
      </trkpt>
      <trkpt lat="47.69035" lon="-2.54303">
        <ele>110</ele>
        <time>2023-11-04T17:45:07Z</time>
      </trkpt>
      <trkpt lat="47.68951" lon="-2.54337">
        <ele>107</ele>
        <time>2023-11-04T17:47:03Z</time>
      </trkpt>
    </trkseg>
  </trk>
</gpx>